createdAt,value
2023-02-26T00:00:18.572Z,664.00
2023-02-26T00:01:18.560Z,674.00
2023-02-26T00:02:18.582Z,660.00
2023-02-26T00:03:18.597Z,659.00
2023-02-26T00:54:54.265Z,500.00
2023-02-26T00:55:55.191Z,500.00
2023-02-26T00:56:55.156Z,500.00
2023-02-26T00:57:55.145Z,500.00
2023-02-26T00:58:55.143Z,500.00
2023-02-26T00:59:55.129Z,500.00
2023-02-26T01:00:55.157Z,422.00
2023-02-26T01:01:55.108Z,400.00
2023-02-26T01:02:55.109Z,400.00
2023-02-26T01:03:55.224Z,400.00
2023-02-26T01:04:55.085Z,400.00
2023-02-26T01:05:55.080Z,412.00
2023-02-26T01:06:55.066Z,431.00
2023-02-26T01:07:55.056Z,459.00
2023-02-26T01:08:55.049Z,495.00
2023-02-26T01:09:55.046Z,500.00
2023-02-26T01:10:55.115Z,498.00
2023-02-26T01:11:55.028Z,503.00
2023-02-26T01:12:55.011Z,500.00
2023-02-26T01:13:55.001Z,502.00
2023-02-26T01:14:54.996Z,499.00
2023-02-26T01:15:55.053Z,503.00
2023-02-26T01:16:54.986Z,502.00
2023-02-26T01:17:54.972Z,505.00
2023-02-26T01:18:54.959Z,505.00
2023-02-26T01:19:54.977Z,498.00
2023-02-26T01:20:54.937Z,504.00
2023-02-26T01:21:54.930Z,500.00
2023-02-26T01:22:54.948Z,500.00
2023-02-26T01:23:54.915Z,502.00
2023-02-26T01:24:54.925Z,500.00
2023-02-26T01:25:54.972Z,500.00
2023-02-26T01:26:54.909Z,501.00
2023-02-26T01:27:54.908Z,500.00
2023-02-26T01:28:54.870Z,503.00
2023-02-26T01:29:54.862Z,500.00
2023-02-26T01:30:54.968Z,503.00
2023-02-26T01:31:55.051Z,505.00
2023-02-26T01:32:54.864Z,506.00
2023-02-26T01:33:54.837Z,507.00
2023-02-26T01:34:54.820Z,502.00
2023-02-26T01:35:54.809Z,504.00
2023-02-26T01:36:54.823Z,504.00
2023-02-26T01:37:54.792Z,504.00
2023-02-26T01:38:54.810Z,501.00
2023-02-26T01:39:54.784Z,502.00
2023-02-26T01:40:54.775Z,511.00
2023-02-26T01:41:54.823Z,512.00
2023-02-26T01:42:54.777Z,508.00
2023-02-26T01:43:54.756Z,503.00
2023-02-26T01:44:54.743Z,502.00
2023-02-26T01:45:54.720Z,511.00
2023-02-26T01:46:54.758Z,503.00
2023-02-26T01:47:54.709Z,501.00
2023-02-26T01:48:54.700Z,502.00
2023-02-26T01:49:54.692Z,504.00
2023-02-26T01:50:54.680Z,513.00
2023-02-26T01:51:54.672Z,510.00
2023-02-26T01:52:54.664Z,506.00
2023-02-26T01:53:54.656Z,506.00
2023-02-26T01:54:54.652Z,518.00
2023-02-26T01:55:54.642Z,511.00
2023-02-26T01:56:54.634Z,505.00
2023-02-26T01:57:54.620Z,503.00
2023-02-26T01:58:54.690Z,512.00
2023-02-26T01:59:54.603Z,506.00
2023-02-26T02:00:54.596Z,502.00
2023-02-26T02:01:54.600Z,507.00
2023-02-26T02:02:54.752Z,509.00
2023-02-26T02:03:54.569Z,503.00
2023-02-26T02:04:54.559Z,505.00
2023-02-26T02:05:54.549Z,506.00
2023-02-26T02:06:54.544Z,508.00
2023-02-26T02:07:54.541Z,502.00
2023-02-26T02:08:54.531Z,503.00
2023-02-26T02:09:54.519Z,507.00
2023-02-26T02:10:54.504Z,515.00
2023-02-26T02:11:54.496Z,506.00
2023-02-26T02:12:54.491Z,517.00
2023-02-26T02:13:54.476Z,508.00
2023-02-26T02:14:54.493Z,501.00
2023-02-26T02:15:54.461Z,507.00
2023-02-26T02:16:54.450Z,500.00
2023-02-26T02:17:54.445Z,505.00
2023-02-26T02:18:54.442Z,507.00
2023-02-26T02:19:54.422Z,504.00
2023-02-26T02:20:54.417Z,509.00
2023-02-26T02:21:54.412Z,512.00
2023-02-26T02:22:54.406Z,511.00
2023-02-26T02:23:54.388Z,503.00
2023-02-26T02:24:54.396Z,500.00
2023-02-26T02:25:54.388Z,507.00
2023-02-26T02:26:54.363Z,511.00
2023-02-26T02:27:54.351Z,508.00
2023-02-26T02:28:54.341Z,513.00
2023-02-26T02:29:55.005Z,505.00
2023-02-26T02:30:54.405Z,507.00
2023-02-26T02:31:54.506Z,510.00
2023-02-26T02:32:54.356Z,512.00
2023-02-26T02:33:54.305Z,504.00
2023-02-26T02:34:54.295Z,508.00
2023-02-26T02:35:54.292Z,507.00
2023-02-26T02:36:54.278Z,508.00
2023-02-26T02:37:54.273Z,516.00
2023-02-26T02:38:54.257Z,511.00
2023-02-26T02:39:54.248Z,517.00
2023-02-26T02:40:54.248Z,518.00
2023-02-26T02:41:54.225Z,511.00
2023-02-26T02:42:54.218Z,505.00
2023-02-26T02:43:54.208Z,510.00
2023-02-26T02:44:54.204Z,505.00
2023-02-26T02:45:54.334Z,504.00
2023-02-26T02:46:54.235Z,505.00
2023-02-26T02:47:54.175Z,506.00
2023-02-26T02:48:54.170Z,505.00
2023-02-26T02:49:55.028Z,506.00
2023-02-26T02:50:54.160Z,508.00
2023-02-26T02:51:54.145Z,507.00
2023-02-26T02:52:54.142Z,504.00
2023-02-26T02:53:54.127Z,501.00
2023-02-26T02:54:54.124Z,515.00
2023-02-26T02:55:54.110Z,517.00
2023-02-26T02:56:54.104Z,510.00
2023-02-26T02:57:54.091Z,513.00
2023-02-26T02:58:54.082Z,515.00
2023-02-26T02:59:54.074Z,511.00
2023-02-26T03:00:54.109Z,508.00
2023-02-26T03:01:54.061Z,500.00
2023-02-26T03:02:54.127Z,511.00
2023-02-26T03:03:54.037Z,511.00
2023-02-26T03:04:54.031Z,509.00
2023-02-26T03:05:54.021Z,502.00
2023-02-26T03:06:54.014Z,502.00
2023-02-26T03:07:54.014Z,514.00
2023-02-26T03:08:53.997Z,508.00
2023-02-26T03:09:53.980Z,509.00
2023-02-26T03:10:52.976Z,506.00
2023-02-26T03:11:53.965Z,513.00
2023-02-26T03:12:53.959Z,519.00
2023-02-26T03:13:53.952Z,520.00
2023-02-26T03:14:53.942Z,516.00
2023-02-26T03:15:53.934Z,515.00
2023-02-26T03:16:54.010Z,519.00
2023-02-26T03:17:53.917Z,517.00
2023-02-26T03:18:53.932Z,503.00
2023-02-26T03:19:53.924Z,512.00
2023-02-26T03:20:53.894Z,504.00
2023-02-26T03:21:53.886Z,505.00
2023-02-26T03:22:53.882Z,516.00
2023-02-26T03:23:53.869Z,513.00
2023-02-26T03:24:53.857Z,515.00
2023-02-26T03:25:53.851Z,514.00
2023-02-26T03:26:53.839Z,513.00
2023-02-26T03:27:53.832Z,517.00
2023-02-26T03:28:53.828Z,516.00
2023-02-26T03:29:53.820Z,515.00
2023-02-26T03:30:53.870Z,522.00
2023-02-26T03:31:53.902Z,526.00
2023-02-26T03:32:53.789Z,525.00
2023-02-26T03:33:53.809Z,512.00
2023-02-26T03:34:54.720Z,507.00
2023-02-26T03:35:53.788Z,510.00
2023-02-26T03:36:53.757Z,503.00
2023-02-26T03:37:53.746Z,500.00
2023-02-26T03:38:53.740Z,501.00
2023-02-26T03:39:53.731Z,505.00
2023-02-26T03:40:53.724Z,515.00
2023-02-26T03:41:53.710Z,523.00
2023-02-26T03:42:53.700Z,513.00
2023-02-26T03:43:53.699Z,519.00
2023-02-26T03:44:53.690Z,512.00
2023-02-26T03:45:53.721Z,519.00
2023-02-26T03:46:53.676Z,512.00
2023-02-26T03:47:53.674Z,516.00
2023-02-26T03:48:53.661Z,514.00
2023-02-26T03:49:53.644Z,510.00
2023-02-26T03:50:53.665Z,512.00
2023-02-26T03:51:53.633Z,500.00
2023-02-26T03:52:53.617Z,513.00
2023-02-26T03:53:53.630Z,516.00
2023-02-26T03:54:53.640Z,520.00
2023-02-26T03:55:53.587Z,518.00
2023-02-26T03:56:53.584Z,515.00
2023-02-26T03:57:53.574Z,517.00
2023-02-26T03:58:53.574Z,520.00
2023-02-26T03:59:53.559Z,517.00
2023-02-26T04:00:53.555Z,522.00
2023-02-26T04:01:53.531Z,524.00
2023-02-26T04:02:53.530Z,521.00
2023-02-26T04:03:53.560Z,518.00
2023-02-26T04:04:53.514Z,512.00
2023-02-26T04:05:53.501Z,523.00
2023-02-26T04:06:53.551Z,521.00
2023-02-26T04:07:53.490Z,526.00
2023-02-26T04:08:53.479Z,527.00
2023-02-26T04:09:53.473Z,516.00
2023-02-26T04:10:53.454Z,512.00
2023-02-26T04:11:53.451Z,516.00
2023-02-26T04:12:53.440Z,519.00
2023-02-26T04:13:53.436Z,523.00
2023-02-26T04:14:53.428Z,515.00
2023-02-26T04:15:53.429Z,516.00
2023-02-26T04:16:53.446Z,507.00
2023-02-26T04:17:53.394Z,508.00
2023-02-26T04:18:53.382Z,521.00
2023-02-26T04:19:53.392Z,523.00
2023-02-26T04:20:53.373Z,527.00
2023-02-26T04:21:53.360Z,514.00
2023-02-26T04:22:53.377Z,519.00
2023-02-26T04:23:53.339Z,522.00
2023-02-26T04:24:53.334Z,515.00
2023-02-26T04:25:53.326Z,511.00
2023-02-26T04:26:53.319Z,518.00
2023-02-26T04:27:53.327Z,525.00
2023-02-26T04:28:53.296Z,518.00
2023-02-26T04:29:53.293Z,516.00
2023-02-26T04:30:53.441Z,513.00
2023-02-26T04:31:53.345Z,514.00
2023-02-26T04:32:53.261Z,514.00
2023-02-26T04:33:53.260Z,518.00
2023-02-26T04:34:53.242Z,519.00
2023-02-26T04:35:53.240Z,515.00
2023-02-26T04:36:53.221Z,518.00
2023-02-26T04:37:53.215Z,511.00
2023-02-26T04:38:53.229Z,509.00
2023-02-26T04:39:53.202Z,516.00
2023-02-26T04:40:53.189Z,513.00
2023-02-26T04:41:53.183Z,505.00
2023-02-26T04:42:53.168Z,513.00
2023-02-26T04:43:53.161Z,511.00
2023-02-26T04:44:53.150Z,506.00
2023-02-26T04:45:53.266Z,509.00
2023-02-26T04:46:53.133Z,508.00
2023-02-26T04:47:53.123Z,503.00
2023-02-26T04:48:53.118Z,503.00
2023-02-26T04:49:53.105Z,510.00
2023-02-26T04:50:53.105Z,513.00
2023-02-26T04:51:53.141Z,508.00
2023-02-26T04:52:53.089Z,511.00
2023-02-26T04:53:53.072Z,522.00
2023-02-26T04:54:53.090Z,508.00
2023-02-26T04:55:53.057Z,510.00
2023-02-26T04:56:53.051Z,510.00
2023-02-26T04:57:53.044Z,515.00
2023-02-26T04:58:53.035Z,510.00
2023-02-26T04:59:53.028Z,514.00
2023-02-26T05:00:53.012Z,512.00
2023-02-26T05:01:53.015Z,507.00
2023-02-26T05:02:53.014Z,514.00
2023-02-26T05:03:52.989Z,508.00
2023-02-26T05:04:53.092Z,509.00
2023-02-26T05:05:52.974Z,502.00
2023-02-26T05:06:52.961Z,502.00
2023-02-26T05:07:52.955Z,507.00
2023-02-26T05:08:52.949Z,511.00
2023-02-26T05:09:52.938Z,512.00
2023-02-26T05:10:52.963Z,514.00
2023-02-26T05:11:52.921Z,510.00
2023-02-26T05:12:52.927Z,502.00
2023-02-26T05:13:52.897Z,511.00
2023-02-26T05:14:52.893Z,513.00
2023-02-26T05:15:52.960Z,509.00
2023-02-26T05:16:52.871Z,509.00
2023-02-26T05:17:52.865Z,512.00
2023-02-26T05:18:52.863Z,515.00
2023-02-26T05:19:52.863Z,520.00
2023-02-26T05:20:52.840Z,520.00
2023-02-26T05:21:52.829Z,521.00
2023-02-26T05:22:52.824Z,504.00
2023-02-26T05:23:52.833Z,507.00
2023-02-26T05:24:52.802Z,511.00
2023-02-26T05:25:52.802Z,503.00
2023-02-26T05:26:52.817Z,512.00
2023-02-26T05:27:52.783Z,514.00
2023-02-26T05:28:52.765Z,506.00
2023-02-26T05:29:52.757Z,499.00
2023-02-26T05:30:52.834Z,500.00
2023-02-26T05:31:52.865Z,513.00
2023-02-26T05:32:52.789Z,520.00
2023-02-26T05:33:52.739Z,520.00
2023-02-26T05:34:52.723Z,504.00
2023-02-26T05:35:52.711Z,511.00
2023-02-26T05:36:52.697Z,522.00
2023-02-26T05:37:52.688Z,511.00
2023-02-26T05:38:52.680Z,513.00
2023-02-26T05:39:52.669Z,519.00
2023-02-26T05:40:52.664Z,516.00
2023-02-26T05:41:52.657Z,515.00
2023-02-26T05:42:52.698Z,511.00
2023-02-26T05:43:52.634Z,505.00
2023-02-26T05:44:52.633Z,508.00
2023-02-26T05:45:52.613Z,514.00
2023-02-26T05:46:52.647Z,518.00
2023-02-26T05:47:52.610Z,513.00
2023-02-26T05:48:52.589Z,521.00
2023-02-26T05:49:52.582Z,511.00
2023-02-26T05:50:52.587Z,516.00
2023-02-26T05:51:52.560Z,511.00
2023-02-26T05:52:52.560Z,520.00
2023-02-26T05:53:52.546Z,511.00
2023-02-26T05:54:52.537Z,513.00
2023-02-26T05:55:52.526Z,512.00
2023-02-26T05:56:52.520Z,517.00
2023-02-26T05:57:52.504Z,512.00
2023-02-26T05:58:52.528Z,514.00
2023-02-26T05:59:52.494Z,502.00
2023-02-26T06:00:52.481Z,505.00
2023-02-26T06:01:52.519Z,504.00
2023-02-26T06:02:52.476Z,509.00
2023-02-26T06:03:52.464Z,514.00
2023-02-26T06:04:52.442Z,514.00
2023-02-26T06:05:52.434Z,513.00
2023-02-26T06:06:52.433Z,518.00
2023-02-26T06:07:52.419Z,512.00
2023-02-26T06:08:52.411Z,510.00
2023-02-26T06:09:52.431Z,521.00
2023-02-26T06:10:52.438Z,510.00
2023-02-26T06:11:52.388Z,509.00
2023-02-26T06:12:52.374Z,511.00
2023-02-26T06:13:52.366Z,505.00
2023-02-26T06:14:52.386Z,510.00
2023-02-26T06:15:52.370Z,508.00
2023-02-26T06:16:52.345Z,509.00
2023-02-26T06:17:52.332Z,500.00
2023-02-26T06:18:52.320Z,505.00
2023-02-26T06:19:52.317Z,506.00
2023-02-26T06:20:52.305Z,507.00
2023-02-26T06:21:52.292Z,507.00
2023-02-26T06:22:52.283Z,506.00
2023-02-26T06:23:52.272Z,500.00
2023-02-26T06:24:52.266Z,501.00
2023-02-26T06:25:52.267Z,501.00
2023-02-26T06:26:52.247Z,511.00
2023-02-26T06:27:52.240Z,503.00
2023-02-26T06:28:52.233Z,507.00
2023-02-26T06:29:52.225Z,507.00
2023-02-26T06:30:52.331Z,500.00
2023-02-26T06:31:52.354Z,501.00
2023-02-26T06:32:52.210Z,524.00
2023-02-26T06:33:52.193Z,510.00
2023-02-26T06:34:52.185Z,516.00
2023-02-26T06:35:52.193Z,501.00
2023-02-26T06:36:52.168Z,501.00
2023-02-26T06:37:52.156Z,512.00
2023-02-26T06:38:52.146Z,500.00
2023-02-26T06:39:52.144Z,500.00
2023-02-26T06:40:52.142Z,508.00
2023-02-26T06:41:52.137Z,517.00
2023-02-26T06:42:52.121Z,512.00
2023-02-26T06:43:52.111Z,511.00
2023-02-26T06:44:52.096Z,520.00
2023-02-26T06:45:52.158Z,521.00
2023-02-26T06:46:52.112Z,522.00
2023-02-26T06:47:52.079Z,508.00
2023-02-26T06:48:52.058Z,501.00
2023-02-26T06:49:52.073Z,500.00
2023-02-26T06:50:52.046Z,509.00
2023-02-26T06:51:52.035Z,510.00
2023-02-26T06:52:52.035Z,512.00
2023-02-26T06:53:52.036Z,517.00
2023-02-26T06:54:52.027Z,509.00
2023-02-26T06:55:52.005Z,509.00
2023-02-26T06:56:51.991Z,524.00
2023-02-26T06:57:51.984Z,524.00
2023-02-26T06:58:51.982Z,515.00
2023-02-26T06:59:51.992Z,509.00
2023-02-26T07:00:51.986Z,506.00
2023-02-26T07:01:51.957Z,511.00
2023-02-26T07:02:51.978Z,516.00
2023-02-26T07:03:51.935Z,510.00
2023-02-26T07:04:51.923Z,517.00
2023-02-26T07:05:51.915Z,513.00
2023-02-26T07:06:51.901Z,511.00
2023-02-26T07:07:51.900Z,510.00
2023-02-26T07:08:51.986Z,515.00
2023-02-26T07:09:51.894Z,508.00
2023-02-26T07:10:51.872Z,506.00
2023-02-26T07:11:51.857Z,512.00
2023-02-26T07:12:51.862Z,513.00
2023-02-26T07:13:51.844Z,509.00
2023-02-26T07:14:51.837Z,516.00
2023-02-26T07:15:51.832Z,514.00
2023-02-26T07:16:51.859Z,516.00
2023-02-26T07:17:51.808Z,515.00
2023-02-26T07:18:51.835Z,508.00
2023-02-26T07:19:51.791Z,509.00
2023-02-26T07:20:51.782Z,515.00
2023-02-26T07:21:51.771Z,500.00
2023-02-26T07:22:51.771Z,500.00
2023-02-26T07:23:51.757Z,502.00
2023-02-26T07:24:51.753Z,506.00
2023-02-26T07:25:51.733Z,516.00
2023-02-26T07:26:51.727Z,516.00
2023-02-26T07:27:51.717Z,514.00
2023-02-26T07:28:51.706Z,504.00
2023-02-26T07:29:51.706Z,506.00
2023-02-26T07:30:51.756Z,527.00
2023-02-26T07:31:51.828Z,514.00
2023-02-26T07:32:51.673Z,513.00
2023-02-26T07:33:51.666Z,500.00
2023-02-26T07:34:51.688Z,506.00
2023-02-26T07:35:51.693Z,500.00
2023-02-26T07:36:51.636Z,505.00
2023-02-26T07:37:51.644Z,510.00
2023-02-26T07:38:51.636Z,515.00
2023-02-26T07:39:51.614Z,519.00
2023-02-26T07:40:51.605Z,517.00
2023-02-26T07:41:51.601Z,525.00
2023-02-26T07:42:51.585Z,524.00
2023-02-26T07:43:51.576Z,503.00
2023-02-26T07:44:51.571Z,507.00
2023-02-26T07:45:51.612Z,528.00
2023-02-26T07:46:51.556Z,522.00
2023-02-26T07:47:51.540Z,522.00
2023-02-26T07:48:51.536Z,518.00
2023-02-26T07:49:51.522Z,509.00
2023-02-26T07:50:51.541Z,522.00
2023-02-26T07:51:51.513Z,525.00
2023-02-26T07:52:51.495Z,528.00
2023-02-26T07:53:51.499Z,519.00
2023-02-26T07:54:51.473Z,520.00
2023-02-26T07:55:51.473Z,515.00
2023-02-26T07:56:51.457Z,517.00
2023-02-26T07:57:51.456Z,509.00
2023-02-26T07:58:51.449Z,515.00
2023-02-26T07:59:51.440Z,505.00
2023-02-26T08:00:51.424Z,514.00
2023-02-26T08:01:51.541Z,520.00
2023-02-26T08:02:51.404Z,519.00
2023-02-26T08:03:51.430Z,521.00
2023-02-26T08:04:51.394Z,509.00
2023-02-26T08:05:51.377Z,504.00
2023-02-26T08:06:51.398Z,508.00
2023-02-26T08:07:51.362Z,508.00
2023-02-26T08:08:51.352Z,509.00
2023-02-26T08:09:51.342Z,504.00
2023-02-26T08:10:51.339Z,515.00
2023-02-26T08:11:51.325Z,502.00
2023-02-26T08:12:51.317Z,511.00
2023-02-26T08:13:51.325Z,512.00
2023-02-26T08:14:51.297Z,513.00
2023-02-26T08:15:51.474Z,512.00
2023-02-26T08:16:51.281Z,511.00
2023-02-26T08:17:51.272Z,514.00
2023-02-26T08:18:51.268Z,507.00
2023-02-26T08:19:51.253Z,501.00
2023-02-26T08:20:51.252Z,514.00
2023-02-26T08:21:51.242Z,518.00
2023-02-26T08:22:51.260Z,520.00
2023-02-26T08:23:51.221Z,526.00
2023-02-26T08:24:51.215Z,520.00
2023-02-26T08:25:51.209Z,515.00
2023-02-26T08:26:51.197Z,514.00
2023-02-26T08:27:51.187Z,511.00
2023-02-26T08:28:51.174Z,512.00
2023-02-26T08:29:51.170Z,524.00
2023-02-26T08:30:51.276Z,520.00
2023-02-26T08:31:51.290Z,507.00
2023-02-26T08:32:51.142Z,514.00
2023-02-26T08:33:51.140Z,513.00
2023-02-26T08:34:51.119Z,507.00
2023-02-26T08:35:51.117Z,505.00
2023-02-26T08:36:51.106Z,507.00
2023-02-26T08:37:51.106Z,511.00
2023-02-26T08:38:51.109Z,511.00
2023-02-26T08:39:51.084Z,510.00
2023-02-26T08:40:51.070Z,509.00
2023-02-26T08:41:51.065Z,502.00
2023-02-26T08:42:51.055Z,516.00
2023-02-26T08:43:51.050Z,526.00
2023-02-26T08:44:51.037Z,505.00
2023-02-26T08:45:51.031Z,504.00
2023-02-26T08:46:51.095Z,502.00
2023-02-26T08:47:56.801Z,504.00
2023-02-26T08:48:51.009Z,505.00
2023-02-26T08:49:50.996Z,509.00
2023-02-26T08:50:51.094Z,513.00
2023-02-26T08:51:50.976Z,515.00
2023-02-26T08:52:50.987Z,516.00
2023-02-26T08:53:50.958Z,515.00
2023-02-26T08:54:50.987Z,511.00
2023-02-26T08:55:50.944Z,515.00
2023-02-26T08:56:50.948Z,526.00
2023-02-26T08:57:50.935Z,514.00
2023-02-26T08:58:50.914Z,500.00
2023-02-26T08:59:50.921Z,504.00
2023-02-26T09:00:50.907Z,511.00
2023-02-26T09:01:50.913Z,514.00
2023-02-26T09:02:50.950Z,510.00
2023-02-26T09:03:50.870Z,504.00
2023-02-26T09:04:50.866Z,507.00
2023-02-26T09:05:50.868Z,505.00
2023-02-26T09:06:50.850Z,510.00
2023-02-26T09:07:50.851Z,514.00
2023-02-26T09:08:50.830Z,510.00
2023-02-26T09:09:50.818Z,510.00
2023-02-26T09:10:50.837Z,506.00
2023-02-26T09:11:50.814Z,512.00
2023-02-26T09:12:50.801Z,506.00
2023-02-26T09:13:50.791Z,509.00
2023-02-26T09:14:50.784Z,506.00
2023-02-26T09:15:50.767Z,509.00
2023-02-26T09:16:51.329Z,512.00
2023-02-26T09:17:50.750Z,519.00
2023-02-26T09:18:50.738Z,508.00
2023-02-26T09:19:50.731Z,505.00
2023-02-26T09:20:50.728Z,511.00
2023-02-26T09:21:50.723Z,512.00
2023-02-26T09:22:50.742Z,512.00
2023-02-26T09:23:50.698Z,510.00
2023-02-26T09:24:50.723Z,519.00
2023-02-26T09:25:50.687Z,519.00
2023-02-26T09:26:50.699Z,520.00
2023-02-26T09:27:50.714Z,520.00
2023-02-26T09:28:50.654Z,526.00
2023-02-26T09:29:50.646Z,517.00
2023-02-26T09:30:50.635Z,527.00
2023-02-26T09:31:50.724Z,522.00
2023-02-26T09:32:50.650Z,526.00
2023-02-26T09:33:50.611Z,529.00
2023-02-26T09:34:50.601Z,527.00
2023-02-26T09:35:50.588Z,527.00
2023-02-26T09:36:50.587Z,531.00
2023-02-26T09:37:50.571Z,529.00
2023-02-26T09:38:50.566Z,533.00
2023-02-26T09:39:51.460Z,533.00
2023-02-26T09:40:50.706Z,538.00
2023-02-26T09:41:50.669Z,536.00
2023-02-26T09:42:50.685Z,538.00
2023-02-26T09:43:50.651Z,540.00
2023-02-26T09:44:50.638Z,536.00
2023-02-26T09:45:50.684Z,540.00
2023-02-26T09:46:50.616Z,540.00
2023-02-26T09:47:50.610Z,539.00
2023-02-26T09:48:50.600Z,543.00
2023-02-26T09:49:50.596Z,551.00
2023-02-26T09:50:50.583Z,537.00
2023-02-26T09:51:50.577Z,535.00
2023-02-26T09:52:50.607Z,535.00
2023-02-26T09:53:50.568Z,537.00
2023-02-26T09:54:50.554Z,542.00
2023-02-26T09:55:50.552Z,541.00
2023-02-26T09:56:50.555Z,539.00
2023-02-26T09:57:50.524Z,537.00
2023-02-26T09:58:50.553Z,542.00
2023-02-26T09:59:50.506Z,536.00
2023-02-26T10:00:50.500Z,544.00
2023-02-26T10:01:50.573Z,545.00
2023-02-26T10:02:50.479Z,545.00
2023-02-26T10:03:50.522Z,551.00
2023-02-26T10:04:50.464Z,548.00
2023-02-26T10:05:50.460Z,552.00
2023-02-26T10:06:50.450Z,551.00
2023-02-26T10:07:50.451Z,557.00
2023-02-26T10:08:50.431Z,557.00
2023-02-26T10:09:50.418Z,560.00
2023-02-26T10:10:50.413Z,559.00
2023-02-26T10:11:50.408Z,555.00
2023-02-26T10:12:50.393Z,562.00
2023-02-26T10:13:57.530Z,564.00
2023-02-26T10:14:50.402Z,564.00
2023-02-26T10:15:50.368Z,565.00
2023-02-26T10:16:50.475Z,564.00
2023-02-26T10:17:50.349Z,565.00
2023-02-26T10:18:50.341Z,572.00
2023-02-26T10:19:50.341Z,572.00
2023-02-26T10:20:50.372Z,571.00
2023-02-26T10:21:50.326Z,570.00
2023-02-26T10:22:50.318Z,574.00
2023-02-26T10:23:50.295Z,571.00
2023-02-26T10:24:50.289Z,569.00
2023-02-26T10:25:50.285Z,568.00
2023-02-26T10:26:50.272Z,568.00
2023-02-26T10:27:50.269Z,574.00
2023-02-26T10:28:50.265Z,570.00
2023-02-26T10:29:50.250Z,576.00
2023-02-26T10:30:50.300Z,577.00
2023-02-26T10:31:50.335Z,575.00
2023-02-26T10:32:50.299Z,577.00
2023-02-26T10:33:50.217Z,578.00
2023-02-26T10:34:50.197Z,574.00
2023-02-26T10:35:50.183Z,578.00
2023-02-26T10:36:50.176Z,584.00
2023-02-26T10:37:50.165Z,582.00
2023-02-26T10:38:50.156Z,578.00
2023-02-26T10:39:50.164Z,575.00
2023-02-26T10:40:50.162Z,575.00
2023-02-26T10:41:50.133Z,575.00
2023-02-26T10:42:50.125Z,583.00
2023-02-26T10:43:50.109Z,582.00
2023-02-26T10:44:50.106Z,582.00
2023-02-26T10:45:50.130Z,582.00
2023-02-26T10:46:50.112Z,583.00
2023-02-26T10:47:50.078Z,582.00
2023-02-26T10:48:50.072Z,584.00
2023-02-26T10:49:50.067Z,585.00
2023-02-26T10:50:50.054Z,587.00
2023-02-26T10:51:50.037Z,584.00
2023-02-26T10:52:50.034Z,588.00
2023-02-26T10:53:50.033Z,587.00
2023-02-26T10:54:50.016Z,583.00
2023-02-26T10:55:50.016Z,584.00
2023-02-26T10:56:50.001Z,581.00
2023-02-26T10:57:49.991Z,583.00
2023-02-26T10:58:49.979Z,589.00
2023-02-26T10:59:49.973Z,585.00
2023-02-26T11:00:49.986Z,584.00
2023-02-26T11:01:49.969Z,584.00
2023-02-26T11:02:49.970Z,584.00
2023-02-26T11:03:49.943Z,584.00
2023-02-26T11:04:56.470Z,586.00
2023-02-26T11:05:49.925Z,586.00
2023-02-26T11:06:49.933Z,587.00
2023-02-26T11:07:49.903Z,586.00
2023-02-26T11:08:49.895Z,588.00
2023-02-26T11:09:49.921Z,583.00
2023-02-26T11:10:49.882Z,586.00
2023-02-26T11:11:49.876Z,588.00
2023-02-26T11:12:49.866Z,581.00
2023-02-26T11:13:49.849Z,581.00
2023-02-26T11:14:49.843Z,585.00
2023-02-26T11:15:49.873Z,586.00
2023-02-26T11:16:49.827Z,584.00
2023-02-26T11:17:49.829Z,590.00
2023-02-26T11:18:49.845Z,587.00
2023-02-26T11:19:49.802Z,589.00
2023-02-26T11:20:49.792Z,584.00
2023-02-26T11:21:49.785Z,582.00
2023-02-26T11:22:49.776Z,585.00
2023-02-26T11:23:49.768Z,587.00
2023-02-26T11:24:49.759Z,588.00
2023-02-26T11:25:49.748Z,582.00
2023-02-26T11:26:49.757Z,582.00
2023-02-26T11:27:49.733Z,582.00
2023-02-26T11:28:49.727Z,588.00
2023-02-26T11:29:49.720Z,589.00
2023-02-26T11:30:49.819Z,590.00
2023-02-26T11:31:49.873Z,586.00
2023-02-26T11:32:49.688Z,587.00
2023-02-26T11:33:49.683Z,596.00
2023-02-26T11:34:49.699Z,591.00
2023-02-26T11:35:49.699Z,590.00
2023-02-26T11:36:49.652Z,587.00
2023-02-26T11:37:49.708Z,589.00
2023-02-26T11:38:49.637Z,592.00
2023-02-26T11:39:49.633Z,593.00
2023-02-26T11:40:49.620Z,590.00
2023-02-26T11:41:49.622Z,592.00
2023-02-26T11:42:49.599Z,589.00
2023-02-26T11:43:49.622Z,591.00
2023-02-26T11:44:49.600Z,592.00
2023-02-26T11:45:49.680Z,587.00
2023-02-26T11:46:49.564Z,593.00
2023-02-26T11:47:49.567Z,593.00
2023-02-26T11:48:49.556Z,594.00
2023-02-26T11:49:49.538Z,593.00
2023-02-26T11:50:49.570Z,595.00
2023-02-26T11:51:49.516Z,597.00
2023-02-26T11:52:49.512Z,596.00
2023-02-26T11:53:49.511Z,593.00
2023-02-26T11:54:49.498Z,592.00
2023-02-26T11:55:49.487Z,592.00
2023-02-26T11:56:49.477Z,593.00
2023-02-26T11:57:49.468Z,591.00
2023-02-26T11:58:49.462Z,593.00
2023-02-26T11:59:49.449Z,599.00
2023-02-26T12:00:49.437Z,596.00
2023-02-26T12:01:49.448Z,593.00
2023-02-26T12:02:49.551Z,594.00
2023-02-26T12:03:49.514Z,591.00
2023-02-26T12:04:49.427Z,589.00
2023-02-26T12:05:49.393Z,589.00
2023-02-26T12:06:49.417Z,592.00
2023-02-26T12:07:50.252Z,592.00
2023-02-26T12:08:49.384Z,597.00
2023-02-26T12:09:49.380Z,593.00
2023-02-26T12:10:49.354Z,588.00
2023-02-26T12:11:49.340Z,592.00
2023-02-26T12:12:49.335Z,593.00
2023-02-26T12:13:49.321Z,589.00
2023-02-26T12:14:49.315Z,591.00
2023-02-26T12:15:49.355Z,590.00
2023-02-26T12:16:49.296Z,592.00
2023-02-26T12:17:49.291Z,592.00
2023-02-26T12:18:49.282Z,596.00
2023-02-26T12:19:49.270Z,594.00
2023-02-26T12:20:49.263Z,592.00
2023-02-26T12:21:49.254Z,594.00
2023-02-26T12:22:49.268Z,596.00
2023-02-26T12:23:49.257Z,590.00
2023-02-26T12:24:49.234Z,596.00
2023-02-26T12:25:49.218Z,595.00
2023-02-26T12:26:49.215Z,595.00
2023-02-26T12:27:49.200Z,598.00
2023-02-26T12:28:49.195Z,595.00
2023-02-26T12:29:49.202Z,591.00
2023-02-26T12:30:49.236Z,595.00
2023-02-26T12:31:49.974Z,590.00
2023-02-26T12:32:49.176Z,594.00
2023-02-26T12:33:49.155Z,596.00
2023-02-26T12:34:49.148Z,595.00
2023-02-26T12:35:49.139Z,595.00
2023-02-26T12:36:49.928Z,593.00
2023-02-26T12:37:49.129Z,587.00
2023-02-26T12:38:49.137Z,595.00
2023-02-26T12:39:49.111Z,590.00
2023-02-26T12:40:49.097Z,597.00
2023-02-26T12:41:49.093Z,596.00
2023-02-26T12:42:49.082Z,597.00
2023-02-26T12:43:49.073Z,591.00
2023-02-26T12:44:49.068Z,594.00
2023-02-26T12:45:49.056Z,591.00
2023-02-26T12:46:49.135Z,597.00
2023-02-26T12:47:49.040Z,596.00
2023-02-26T12:48:51.305Z,593.00
2023-02-26T12:49:49.018Z,593.00
2023-02-26T12:50:49.019Z,594.00
2023-02-26T12:51:49.004Z,587.00
2023-02-26T12:52:48.991Z,597.00
2023-02-26T12:53:48.982Z,592.00
2023-02-26T12:54:49.001Z,592.00
2023-02-26T12:55:48.961Z,590.00
2023-02-26T12:56:48.966Z,594.00
2023-02-26T12:57:48.948Z,589.00
2023-02-26T12:58:48.940Z,594.00
2023-02-26T12:59:48.928Z,591.00
2023-02-26T13:00:48.951Z,594.00
2023-02-26T13:02:00.406Z,594.00
2023-02-26T13:02:48.908Z,595.00
2023-02-26T13:03:48.913Z,595.00
2023-02-26T13:04:48.887Z,596.00
2023-02-26T13:05:48.884Z,597.00
2023-02-26T13:06:48.870Z,598.00
2023-02-26T13:07:48.872Z,599.00
2023-02-26T13:08:48.854Z,590.00
2023-02-26T13:09:48.840Z,589.00
2023-02-26T13:10:48.854Z,589.00
2023-02-26T13:11:48.835Z,586.00
2023-02-26T13:12:48.815Z,590.00
2023-02-26T13:13:48.816Z,592.00
2023-02-26T13:14:48.804Z,591.00
2023-02-26T13:15:48.796Z,593.00
2023-02-26T13:16:48.794Z,594.00
2023-02-26T13:17:48.787Z,594.00
2023-02-26T13:18:48.808Z,600.00